createdAt,value
2017-10-02T00:01:55.378Z,101103.62
2017-10-02T00:04:23.006Z,101095.11
2017-10-02T00:06:50.631Z,101083.39
2017-10-02T00:09:18.290Z,101079.50
2017-10-02T00:11:45.878Z,101077.91
2017-10-02T00:14:13.549Z,101065.27
2017-10-02T00:16:41.142Z,101062.00
2017-10-02T00:19:08.771Z,101066.74
2017-10-02T00:21:36.405Z,101065.00
2017-10-02T00:24:04.121Z,101058.39
2017-10-02T00:26:31.728Z,101059.22
2017-10-02T00:28:59.342Z,101053.00
2017-10-02T00:31:26.937Z,101052.17
2017-10-02T00:33:54.553Z,101040.97
2017-10-02T00:36:22.135Z,101043.25
2017-10-02T00:38:49.786Z,101042.03
2017-10-02T00:41:17.382Z,101042.97
2017-10-02T00:43:45.030Z,101041.13
2017-10-02T00:46:12.626Z,101041.11
2017-10-02T00:48:40.225Z,101047.17
2017-10-02T00:51:07.866Z,101031.83
2017-10-02T00:53:35.470Z,101028.73
2017-10-02T00:56:03.110Z,101019.30
2017-10-02T00:58:30.710Z,101025.11
2017-10-02T01:00:58.340Z,101018.26
2017-10-02T01:03:25.964Z,101017.73
2017-10-02T01:05:53.575Z,101009.39
2017-10-02T01:08:21.161Z,101002.53
2017-10-02T01:10:48.782Z,101008.48
2017-10-02T01:13:16.390Z,101005.01
2017-10-02T01:15:44.023Z,101010.41
2017-10-02T01:18:11.631Z,101005.13
2017-10-02T01:20:39.269Z,101007.28
2017-10-02T01:23:06.902Z,101013.47
2017-10-02T01:25:34.552Z,101019.11
2017-10-02T01:28:02.175Z,101024.78
2017-10-02T01:30:29.758Z,101027.83
2017-10-02T01:32:57.374Z,101033.89
2017-10-02T01:35:25.058Z,101033.97
2017-10-02T01:37:52.673Z,101028.41
2017-10-02T01:40:20.284Z,101018.19
2017-10-02T01:42:47.925Z,101005.20
2017-10-02T01:45:15.521Z,101006.46
2017-10-02T01:47:43.156Z,100998.66
2017-10-02T01:50:10.755Z,100996.20
2017-10-02T01:52:38.381Z,100999.45
2017-10-02T01:55:05.979Z,100993.91
2017-10-02T01:57:33.615Z,100996.48
2017-10-02T02:00:01.207Z,100994.84
2017-10-02T02:02:28.824Z,100984.46
2017-10-02T02:04:56.415Z,100987.57
2017-10-02T02:07:24.032Z,100987.45
2017-10-02T02:09:51.678Z,100985.94
2017-10-02T02:12:19.326Z,100988.02
2017-10-02T02:14:46.924Z,100985.72
2017-10-02T02:17:14.575Z,100983.73
2017-10-02T02:19:42.211Z,100985.11
2017-10-02T02:22:09.838Z,100978.47
2017-10-02T02:24:37.430Z,100981.88
2017-10-02T02:27:05.063Z,100977.73
2017-10-02T02:29:32.678Z,100970.09
2017-10-02T02:32:00.313Z,100968.23
2017-10-02T02:34:27.908Z,100963.56
2017-10-02T02:36:55.531Z,100963.44
2017-10-02T02:39:23.150Z,100969.67
2017-10-02T02:41:50.766Z,100962.30
2017-10-02T02:44:18.385Z,100952.75
2017-10-02T02:46:46.004Z,100950.47
2017-10-02T02:49:13.650Z,100943.33
2017-10-02T02:51:41.263Z,100935.25
2017-10-02T02:54:08.852Z,100925.94
2017-10-02T02:56:36.576Z,100920.00
2017-10-02T02:59:04.175Z,100926.58
2017-10-02T03:01:31.822Z,100933.30
2017-10-02T03:03:59.414Z,100927.39
2017-10-02T03:06:27.074Z,100920.22
2017-10-02T03:08:54.671Z,100931.29
2017-10-02T03:11:22.299Z,100925.47
2017-10-02T03:13:49.894Z,100922.91
2017-10-02T03:16:17.564Z,100919.66
2017-10-02T03:18:45.181Z,100922.98
2017-10-02T03:21:12.811Z,100921.91
2017-10-02T03:23:40.399Z,100920.00
2017-10-02T03:26:08.026Z,100922.44
2017-10-02T03:28:35.623Z,100927.28
2017-10-02T03:31:03.247Z,100922.39
2017-10-02T03:33:30.873Z,100917.69
2017-10-02T03:35:58.533Z,100914.55
2017-10-02T03:38:26.256Z,100901.55
2017-10-02T03:40:53.966Z,100893.75
2017-10-02T03:43:21.574Z,100884.74
2017-10-02T03:45:49.191Z,100875.18
2017-10-02T03:48:16.910Z,100885.16
2017-10-02T03:50:44.543Z,100876.63
2017-10-02T03:53:12.182Z,100882.01
2017-10-02T03:55:39.783Z,100884.72
2017-10-02T03:58:07.415Z,100883.41
2017-10-02T04:00:35.047Z,100880.45
2017-10-02T04:03:02.676Z,100884.11
2017-10-02T04:05:30.266Z,100878.29
2017-10-02T04:07:57.906Z,100862.92
2017-10-02T04:10:25.517Z,100858.36
2017-10-02T04:12:53.185Z,100854.69
2017-10-02T04:15:20.826Z,100855.92
2017-10-02T04:17:48.499Z,100854.45
2017-10-02T04:20:16.084Z,100859.31
2017-10-02T04:22:43.722Z,100860.08
2017-10-02T04:25:11.348Z,100857.94
2017-10-02T04:27:38.982Z,100856.86
2017-10-02T04:30:06.627Z,100856.97
2017-10-02T04:32:34.233Z,100858.72
2017-10-02T04:35:01.872Z,100855.88
2017-10-02T04:37:29.478Z,100854.80
2017-10-02T04:39:57.092Z,100854.41
2017-10-02T04:42:24.821Z,100843.59
2017-10-02T04:44:52.658Z,100849.95
2017-10-02T04:47:20.255Z,100848.84
2017-10-02T04:49:47.870Z,100837.91
2017-10-02T04:52:15.478Z,100842.63
2017-10-02T04:54:43.354Z,100836.75
2017-10-02T04:57:11.082Z,100836.63
2017-10-02T04:59:38.711Z,100836.64
2017-10-02T05:02:06.497Z,100830.73
2017-10-02T05:04:34.143Z,100834.17
2017-10-02T05:07:01.752Z,100823.84
2017-10-02T05:09:29.434Z,100823.71
2017-10-02T05:11:57.038Z,100817.66
2017-10-02T05:14:24.767Z,100817.39
2017-10-02T05:16:52.404Z,100814.69
2017-10-02T05:19:20.092Z,100818.98
2017-10-02T05:21:47.694Z,100819.65
2017-10-02T05:24:15.346Z,100826.92
2017-10-02T05:26:43.139Z,100833.23
2017-10-02T05:29:10.927Z,100826.34
2017-10-02T05:31:38.967Z,100836.98
2017-10-02T05:34:06.578Z,100839.02
2017-10-02T05:36:34.211Z,100830.11
2017-10-02T05:39:01.915Z,100843.17
2017-10-02T05:41:30.647Z,100845.50
2017-10-02T05:43:58.668Z,100837.92
2017-10-02T05:46:26.622Z,100836.41
2017-10-02T05:48:54.253Z,100835.35
2017-10-02T05:51:21.890Z,100838.31
2017-10-02T05:53:49.551Z,100827.95
2017-10-02T05:56:17.169Z,100834.13
2017-10-02T05:58:44.754Z,100832.91
2017-10-02T06:01:12.427Z,100829.27
2017-10-02T06:03:40.065Z,100832.74
2017-10-02T06:06:07.793Z,100835.66
2017-10-02T06:08:35.405Z,100837.27
2017-10-02T06:11:03.033Z,100839.94
2017-10-02T06:13:30.642Z,100846.00
2017-10-02T06:15:58.292Z,100850.84
2017-10-02T06:18:25.910Z,100847.30
2017-10-02T06:20:53.552Z,100860.64
2017-10-02T06:23:21.207Z,100856.72
2017-10-02T06:25:48.826Z,100858.36
2017-10-02T06:28:16.542Z,100857.25
2017-10-02T06:30:44.140Z,100848.32
2017-10-02T06:33:11.786Z,100856.53
2017-10-02T06:35:39.389Z,100846.52
2017-10-02T06:38:07.118Z,100840.03
2017-10-02T06:40:34.745Z,100841.24
2017-10-02T06:43:02.382Z,100836.64
2017-10-02T06:45:30.006Z,100834.63
2017-10-02T06:47:57.630Z,100825.97
2017-10-02T06:50:25.222Z,100831.48
2017-10-02T06:52:52.858Z,100836.45
2017-10-02T06:55:20.461Z,100849.12
2017-10-02T06:57:48.153Z,100843.27
2017-10-02T07:00:15.749Z,100842.83
2017-10-02T07:02:43.595Z,100845.74
2017-10-02T07:05:11.197Z,100836.92
2017-10-02T07:07:38.853Z,100834.72
2017-10-02T07:10:06.487Z,100830.00
2017-10-02T07:12:34.116Z,100824.19
2017-10-02T07:15:01.783Z,100834.61
2017-10-02T07:17:29.378Z,100841.56
2017-10-02T07:19:57.008Z,100835.20
2017-10-02T07:22:24.825Z,100830.59
2017-10-02T07:24:52.529Z,100836.93
2017-10-02T07:27:20.146Z,100839.31
2017-10-02T07:29:47.812Z,100836.76
2017-10-02T07:32:15.407Z,100845.83
2017-10-02T07:34:43.035Z,100843.27
2017-10-02T07:37:10.627Z,100842.06
2017-10-02T07:39:38.246Z,100852.16
2017-10-02T07:42:05.866Z,100848.09
2017-10-02T07:44:33.527Z,100854.04
2017-10-02T07:47:01.170Z,100854.04
2017-10-02T07:49:28.796Z,100851.28
2017-10-02T07:51:56.402Z,100844.36
2017-10-02T07:54:24.070Z,100845.98
2017-10-02T07:56:51.662Z,100843.72
2017-10-02T07:59:19.311Z,100844.02
2017-10-02T08:01:46.925Z,100830.08
2017-10-02T08:04:14.524Z,100833.83
2017-10-02T08:06:42.368Z,100837.88
2017-10-02T08:09:09.972Z,100839.76
2017-10-02T08:11:37.664Z,100844.45
2017-10-02T08:14:05.283Z,100847.00
2017-10-02T08:16:32.914Z,100843.48
2017-10-02T08:19:00.539Z,100853.61
2017-10-02T08:21:28.298Z,100857.78
2017-10-02T08:23:55.949Z,100867.47
2017-10-02T08:26:23.605Z,100857.02
2017-10-02T08:28:51.207Z,100851.85
2017-10-02T08:31:18.930Z,100851.12
2017-10-02T08:33:46.523Z,100857.72
2017-10-02T08:36:14.200Z,100860.69
2017-10-02T08:38:41.789Z,100865.33
2017-10-02T08:41:09.426Z,100869.99
2017-10-02T08:43:37.046Z,100866.27
2017-10-02T08:46:04.678Z,100864.50
2017-10-02T08:48:32.305Z,100860.07
2017-10-02T08:50:59.920Z,100859.78
2017-10-02T08:53:27.655Z,100861.27
2017-10-02T08:55:55.351Z,100864.47
2017-10-02T08:58:22.948Z,100864.73
2017-10-02T09:00:50.590Z,100871.05
2017-10-02T09:03:18.357Z,100864.59
2017-10-02T09:05:46.037Z,100874.87
2017-10-02T09:08:13.647Z,100876.27
2017-10-02T09:10:41.264Z,100872.66
2017-10-02T09:13:08.875Z,100870.87
2017-10-02T09:15:36.485Z,100868.82
2017-10-02T09:18:04.115Z,100868.88
2017-10-02T09:20:31.730Z,100865.32
2017-10-02T09:22:59.371Z,100864.35
2017-10-02T09:25:27.108Z,100868.55
2017-10-02T09:27:54.693Z,100863.85
2017-10-02T09:30:22.347Z,100861.83
2017-10-02T09:32:49.928Z,100858.98
2017-10-02T09:35:17.639Z,100860.48
2017-10-02T09:37:45.342Z,100863.97
2017-10-02T09:40:12.982Z,100871.19
2017-10-02T09:42:40.632Z,100869.37
2017-10-02T09:45:08.298Z,100870.47
2017-10-02T09:47:35.937Z,100876.08
2017-10-02T09:50:03.558Z,100867.77
2017-10-02T09:52:31.197Z,100869.09
2017-10-02T09:54:58.811Z,100865.42
2017-10-02T09:57:26.446Z,100857.95
2017-10-02T09:59:54.060Z,100851.24
2017-10-02T10:02:21.714Z,100834.47
2017-10-02T10:04:49.331Z,100831.55
2017-10-02T10:07:16.994Z,100839.48
2017-10-02T10:09:44.606Z,100835.56
2017-10-02T10:12:12.226Z,100836.13
2017-10-02T10:14:39.834Z,100823.42
2017-10-02T10:17:07.567Z,100814.80
2017-10-02T10:19:35.193Z,100814.88
2017-10-02T10:22:02.822Z,100807.17
2017-10-02T10:24:30.422Z,100798.89
2017-10-02T10:26:58.094Z,100799.80
2017-10-02T10:29:25.687Z,100797.38
2017-10-02T10:31:53.369Z,100800.47
2017-10-02T10:34:20.971Z,100793.49
2017-10-02T10:36:48.689Z,100795.48
2017-10-02T10:39:16.382Z,100805.23
2017-10-02T10:41:43.997Z,100816.03
2017-10-02T10:44:11.610Z,100825.02
2017-10-02T10:46:39.279Z,100830.96
2017-10-02T10:49:06.883Z,100827.56
2017-10-02T10:51:34.496Z,100828.58
2017-10-02T10:54:02.160Z,100828.82
2017-10-02T10:56:29.770Z,100830.75
2017-10-02T10:58:57.410Z,100835.22
2017-10-02T11:01:25.035Z,100839.16
2017-10-02T11:03:52.693Z,100843.14
2017-10-02T11:06:20.308Z,100832.25
2017-10-02T11:08:47.936Z,100831.59
2017-10-02T11:11:15.541Z,100832.27
2017-10-02T11:13:43.199Z,100845.58
2017-10-02T11:16:10.854Z,100838.80
2017-10-02T11:18:38.495Z,100842.99
2017-10-02T11:21:06.094Z,100854.67
2017-10-02T11:23:33.721Z,100861.63
2017-10-02T11:26:01.526Z,100863.92
2017-10-02T11:28:29.149Z,100858.13
2017-10-02T11:30:56.770Z,100868.30
2017-10-02T11:33:24.434Z,100865.75
2017-10-02T11:35:52.184Z,100865.48
2017-10-02T11:38:19.815Z,100861.41
2017-10-02T11:40:47.462Z,100869.81
2017-10-02T11:43:15.116Z,100856.71
2017-10-02T11:45:42.713Z,100851.58
2017-10-02T11:48:10.578Z,100857.98
2017-10-02T11:50:38.198Z,100856.45
2017-10-02T11:53:05.830Z,100842.38
2017-10-02T11:55:33.407Z,100846.34
2017-10-02T11:58:01.006Z,100851.66
2017-10-02T12:00:28.768Z,100855.06
2017-10-02T12:02:56.870Z,100857.84
2017-10-02T12:05:24.508Z,100852.78
2017-10-02T12:07:52.154Z,100854.43
2017-10-02T12:10:19.817Z,100844.48
2017-10-02T12:12:47.417Z,100841.49
2017-10-02T12:15:15.046Z,100844.87
2017-10-02T12:17:42.676Z,100838.45
2017-10-02T12:20:10.303Z,100833.63
2017-10-02T12:22:37.906Z,100840.99
2017-10-02T12:25:05.530Z,100846.23
2017-10-02T12:27:33.138Z,100831.95
2017-10-02T12:30:00.775Z,100825.88
2017-10-02T12:32:28.423Z,100836.19
2017-10-02T12:34:56.039Z,100841.86
2017-10-02T12:37:23.634Z,100842.03
2017-10-02T12:39:51.383Z,100849.98
2017-10-02T12:42:18.974Z,100853.97
2017-10-02T12:44:46.615Z,100854.97
2017-10-02T12:47:14.202Z,100845.06
2017-10-02T12:49:42.582Z,100851.80
2017-10-02T12:52:10.181Z,100856.30
2017-10-02T12:54:37.944Z,100845.12
2017-10-02T12:57:05.652Z,100842.22
2017-10-02T12:59:33.286Z,100836.27
2017-10-02T13:02:00.883Z,100834.38
2017-10-02T13:04:28.546Z,100818.09
2017-10-02T13:06:56.162Z,100815.94
2017-10-02T13:09:23.815Z,100817.80
2017-10-02T13:11:51.412Z,100808.31
2017-10-02T13:14:19.104Z,100806.08
2017-10-02T13:16:48.420Z,100805.24
2017-10-02T13:19:16.066Z,100798.75
2017-10-02T13:21:43.678Z,100802.13
2017-10-02T13:24:11.327Z,100799.47
2017-10-02T13:26:38.914Z,100798.27
2017-10-02T13:29:06.574Z,100790.84
2017-10-02T13:31:34.173Z,100795.13
2017-10-02T13:34:01.843Z,100803.82
2017-10-02T13:36:29.458Z,100794.32
2017-10-02T13:38:57.073Z,100789.95
2017-10-02T13:41:24.708Z,100787.77
2017-10-02T13:43:52.351Z,100792.50
2017-10-02T13:46:19.962Z,100805.48
2017-10-02T13:48:47.585Z,100807.07
2017-10-02T13:51:15.226Z,100808.98
2017-10-02T13:53:42.923Z,100796.91
2017-10-02T13:56:10.549Z,100794.45
2017-10-02T13:58:38.213Z,100778.28
2017-10-02T14:01:05.824Z,100773.82
2017-10-02T14:03:33.410Z,100794.31
2017-10-02T14:06:01.134Z,100793.82
2017-10-02T14:08:28.763Z,100798.19
2017-10-02T14:10:56.386Z,100790.91
2017-10-02T14:13:24.045Z,100785.30
2017-10-02T14:15:51.726Z,100772.85
2017-10-02T14:18:19.392Z,100767.92
2017-10-02T14:20:47.076Z,100781.56
2017-10-02T14:23:14.661Z,100772.72
2017-10-02T14:25:44.221Z,100781.95
2017-10-02T14:28:11.930Z,100769.01
2017-10-02T14:30:39.609Z,100771.16
2017-10-02T14:33:07.214Z,100772.27
2017-10-02T14:35:34.858Z,100776.30
2017-10-02T14:38:02.495Z,100784.11
2017-10-02T14:40:30.145Z,100779.97
2017-10-02T14:42:57.797Z,100773.63
2017-10-02T14:45:25.459Z,100782.52
2017-10-02T14:47:53.131Z,100770.03
2017-10-02T14:50:20.783Z,100768.45
2017-10-02T14:52:48.443Z,100770.83
2017-10-02T14:55:16.141Z,100771.69
2017-10-02T14:57:43.718Z,100779.72
2017-10-02T15:00:11.368Z,100770.22
2017-10-02T15:02:38.987Z,100766.93
2017-10-02T15:05:06.629Z,100772.61
2017-10-02T15:07:34.218Z,100776.73
2017-10-02T15:10:01.874Z,100772.13
2017-10-02T15:12:29.534Z,100775.33
2017-10-02T15:14:57.204Z,100764.73
2017-10-02T15:17:24.817Z,100767.94
2017-10-02T15:19:52.462Z,100772.52
2017-10-02T15:22:20.120Z,100772.34
2017-10-02T15:24:47.710Z,100774.50
2017-10-02T15:27:15.383Z,100779.04
2017-10-02T15:29:43.000Z,100780.51
2017-10-02T15:32:10.650Z,100780.44
2017-10-02T15:34:38.260Z,100783.09
2017-10-02T15:37:06.008Z,100786.53
2017-10-02T15:39:33.605Z,100778.11
2017-10-02T15:42:01.227Z,100771.50
2017-10-02T15:44:28.871Z,100775.33
2017-10-02T15:46:56.476Z,100767.88
2017-10-02T15:49:24.117Z,100775.17
2017-10-02T15:51:51.750Z,100781.23
2017-10-02T15:54:19.408Z,100782.49
2017-10-02T15:56:47.011Z,100787.52
2017-10-02T15:59:14.667Z,100796.90
2017-10-02T16:01:42.285Z,100785.85
2017-10-02T16:04:09.939Z,100783.61
2017-10-02T16:06:37.564Z,100786.31
2017-10-02T16:09:05.200Z,100782.73
2017-10-02T16:11:32.807Z,100796.14
2017-10-02T16:14:00.702Z,100791.07
2017-10-02T16:16:28.319Z,100803.91
2017-10-02T16:18:55.920Z,100802.07
2017-10-02T16:21:23.583Z,100810.16
2017-10-02T16:23:51.201Z,100808.77
2017-10-02T16:26:18.878Z,100806.45
2017-10-02T16:28:46.531Z,100795.65
2017-10-02T16:31:14.185Z,100811.38
2017-10-02T16:33:41.841Z,100812.14
2017-10-02T16:36:09.490Z,100819.94
2017-10-02T16:38:37.091Z,100826.56
2017-10-02T16:41:04.745Z,100829.44
2017-10-02T16:43:32.399Z,100844.11
2017-10-02T16:46:00.204Z,100830.83
2017-10-02T16:48:27.909Z,100838.52
2017-10-02T16:50:55.646Z,100826.97
2017-10-02T16:53:23.290Z,100828.70
2017-10-02T16:55:50.906Z,100826.25
2017-10-02T16:58:18.591Z,100816.46
2017-10-02T17:00:46.193Z,100821.83
2017-10-02T17:03:13.834Z,100823.34
2017-10-02T17:05:41.435Z,100812.17
2017-10-02T17:08:09.130Z,100811.85
2017-10-02T17:10:36.755Z,100825.23
2017-10-02T17:13:04.393Z,100840.63
2017-10-02T17:15:31.999Z,100843.08
2017-10-02T17:17:59.666Z,100839.89
2017-10-02T17:20:27.262Z,100830.23
2017-10-02T17:22:54.898Z,100837.71
2017-10-02T17:25:22.564Z,100844.27
2017-10-02T17:27:50.207Z,100852.16
2017-10-02T17:30:17.846Z,100844.39
2017-10-02T17:32:46.294Z,100837.35
2017-10-02T17:35:13.899Z,100836.68
2017-10-02T17:37:41.703Z,100834.60
2017-10-02T17:40:09.346Z,100839.59
2017-10-02T17:42:36.978Z,100839.14
2017-10-02T17:45:04.678Z,100844.40
2017-10-02T17:47:32.476Z,100848.94
2017-10-02T17:50:00.219Z,100850.92
2017-10-02T17:52:27.891Z,100855.47
2017-10-02T17:54:55.646Z,100842.90
2017-10-02T17:57:23.251Z,100848.53
2017-10-02T17:59:51.054Z,100843.83
2017-10-02T18:02:18.675Z,100848.84
2017-10-02T18:04:46.331Z,100847.04
2017-10-02T18:07:13.980Z,100851.83
2017-10-02T18:09:41.618Z,100848.76
2017-10-02T18:12:09.210Z,100848.53
2017-10-02T18:14:36.872Z,100844.27
2017-10-02T18:17:04.464Z,100849.44
2017-10-02T18:19:32.241Z,100842.66
2017-10-02T18:21:59.840Z,100850.41
2017-10-02T18:24:27.476Z,100848.90
2017-10-02T18:26:55.133Z,100847.19
2017-10-02T18:29:22.754Z,100843.17
2017-10-02T18:31:50.418Z,100853.44
2017-10-02T18:34:18.052Z,100846.81
2017-10-02T18:36:45.702Z,100845.56
2017-10-02T18:39:13.359Z,100848.65
2017-10-02T18:41:41.045Z,100852.39
2017-10-02T18:44:08.662Z,100851.86
2017-10-02T18:46:36.318Z,100848.16
2017-10-02T18:49:03.921Z,100846.19
2017-10-02T18:51:31.645Z,100845.20
2017-10-02T18:53:59.242Z,100842.89
2017-10-02T18:56:26.952Z,100846.23
2017-10-02T18:58:54.581Z,100851.44
2017-10-02T19:01:22.242Z,100847.59
2017-10-02T19:03:49.849Z,100852.02
2017-10-02T19:06:17.931Z,100867.18
2017-10-02T19:08:45.553Z,100873.52
2017-10-02T19:11:13.300Z,100873.91
2017-10-02T19:13:41.002Z,100877.98
2017-10-02T19:16:08.611Z,100874.44
2017-10-02T19:18:36.247Z,100872.75
2017-10-02T19:21:03.877Z,100865.13
2017-10-02T19:23:31.544Z,100873.45
2017-10-02T19:25:59.174Z,100868.39
2017-10-02T19:28:26.839Z,100870.69
2017-10-02T19:30:54.455Z,100874.39
2017-10-02T19:33:22.115Z,100867.23
2017-10-02T19:35:49.754Z,100872.96
2017-10-02T19:38:17.420Z,100868.13
2017-10-02T19:40:45.041Z,100864.06
2017-10-02T19:43:12.714Z,100864.03
2017-10-02T19:45:40.364Z,100874.00
2017-10-02T19:48:08.006Z,100869.20
2017-10-02T19:50:35.622Z,100870.44
2017-10-02T19:53:03.222Z,100863.77
2017-10-02T19:55:30.893Z,100860.41
2017-10-02T19:57:58.579Z,100862.73
2017-10-02T20:00:26.235Z,100853.38
2017-10-02T20:02:53.843Z,100854.44
2017-10-02T20:05:21.479Z,100849.72
2017-10-02T20:07:49.094Z,100844.88
2017-10-02T20:10:16.754Z,100852.52
2017-10-02T20:12:44.437Z,100853.17
2017-10-02T20:15:12.149Z,100851.92
2017-10-02T20:17:39.758Z,100854.48
2017-10-02T20:20:07.427Z,100864.98
2017-10-02T20:22:35.062Z,100866.64
2017-10-02T20:25:02.974Z,100859.64
2017-10-02T20:27:30.600Z,100867.06
2017-10-02T20:29:58.266Z,100855.60
2017-10-02T20:32:26.067Z,100854.09
2017-10-02T20:34:53.810Z,100861.16
2017-10-02T20:37:21.450Z,100867.19
2017-10-02T20:39:49.188Z,100873.47
2017-10-02T20:42:17.059Z,100870.16
2017-10-02T20:44:44.728Z,100879.14
2017-10-02T20:47:12.418Z,100880.12
2017-10-02T20:49:40.059Z,100886.92
2017-10-02T20:52:07.726Z,100886.92
2017-10-02T20:54:35.329Z,100886.31
2017-10-02T20:57:02.935Z,100879.89
2017-10-02T20:59:30.614Z,100879.78
2017-10-02T21:01:58.210Z,100877.48
2017-10-02T21:04:26.012Z,100884.02
2017-10-02T21:06:53.834Z,100886.61
2017-10-02T21:09:21.540Z,100888.48
2017-10-02T21:11:49.158Z,100884.17
2017-10-02T21:14:16.794Z,100892.84
2017-10-02T21:16:44.409Z,100894.91
2017-10-02T21:19:12.069Z,100882.39
2017-10-02T21:21:39.707Z,100875.17
2017-10-02T21:24:07.327Z,100889.77
2017-10-02T21:26:34.994Z,100888.48
2017-10-02T21:29:02.590Z,100891.70
2017-10-02T21:31:30.253Z,100889.85
2017-10-02T21:33:57.855Z,100885.22
2017-10-02T21:36:25.505Z,100894.83
2017-10-02T21:38:53.130Z,100888.90
2017-10-02T21:41:20.774Z,100892.45
2017-10-02T21:43:48.473Z,100887.05
2017-10-02T21:46:16.106Z,100893.86
2017-10-02T21:48:43.754Z,100893.06
2017-10-02T21:51:11.534Z,100891.07
2017-10-02T21:53:39.134Z,100893.68
2017-10-02T21:56:06.943Z,100890.56
2017-10-02T21:58:34.544Z,100887.94
2017-10-02T22:01:02.135Z,100895.97
2017-10-02T22:03:29.958Z,100896.74
2017-10-02T22:05:57.553Z,100890.59
2017-10-02T22:08:25.186Z,100894.02
2017-10-02T22:10:52.802Z,100901.39
2017-10-02T22:13:20.446Z,100898.82
2017-10-02T22:15:48.044Z,100895.63
2017-10-02T22:18:15.682Z,100896.04
2017-10-02T22:20:43.278Z,100898.01
2017-10-02T22:23:11.070Z,100895.56
2017-10-02T22:25:38.679Z,100897.02
2017-10-02T22:28:06.334Z,100902.20
2017-10-02T22:30:33.949Z,100905.26
2017-10-02T22:33:01.971Z,100903.24
2017-10-02T22:35:29.664Z,100906.39
2017-10-02T22:37:57.367Z,100901.00
2017-10-02T22:40:25.225Z,100908.66
2017-10-02T22:42:56.391Z,100911.09
2017-10-02T22:45:24.041Z,100912.88
2017-10-02T22:47:51.638Z,100906.86
2017-10-02T22:50:19.311Z,100910.16
2017-10-02T22:52:47.021Z,100908.58
2017-10-02T22:55:14.663Z,100894.47
2017-10-02T22:57:42.270Z,100895.48
2017-10-02T23:00:09.924Z,100880.81
2017-10-02T23:02:37.506Z,100885.28
2017-10-02T23:05:05.147Z,100879.20
2017-10-02T23:07:32.919Z,100874.73
2017-10-02T23:10:00.559Z,100873.83
2017-10-02T23:12:28.158Z,100871.66
2017-10-02T23:14:55.839Z,100872.10
2017-10-02T23:17:23.458Z,100862.88
2017-10-02T23:19:51.093Z,100855.58
2017-10-02T23:22:18.853Z,100858.05
2017-10-02T23:24:46.732Z,100865.62
2017-10-02T23:27:14.335Z,100866.59
2017-10-02T23:29:41.995Z,100863.16
2017-10-02T23:32:09.678Z,100873.14
2017-10-02T23:34:37.309Z,100866.16
2017-10-02T23:37:04.943Z,100867.36
2017-10-02T23:39:32.697Z,100861.11
2017-10-02T23:42:00.350Z,100871.64
2017-10-02T23:44:27.976Z,100880.27
2017-10-02T23:46:55.612Z,100878.48
2017-10-02T23:49:23.215Z,100877.25
2017-10-02T23:51:50.843Z,100875.41
2017-10-02T23:54:18.487Z,100882.55
2017-10-02T23:56:46.101Z,100886.59
2017-10-02T23:59:13.774Z,100877.03
